This is the latest recevied weather packets stored in our database for station/object KB1RMA-4. If no packets are shown the sender has not sent any weather packets the latest 10 day(s).
| Time | Temp. | Humidity | Pressure | Rain* | Wind** | Luminosity | Snow |
|---|---|---|---|---|---|---|---|
| 1787841866 | 25.56° C | 67% | 1018.5 hPa | 0 mm | - | 522 W/m² | - |
| 1787841563 | 26.11° C | 67% | 1018.3 hPa | 0 mm | - | 280 W/m² | - |
| 1787841261 | 26.67° C | 66% | 1018.3 hPa | 0 mm | - | 246 W/m² | - |
| 1787840956 | 25° C | 69% | 1018.3 hPa | 0 mm | - | 818 W/m² | - |
| 1787840652 | 25° C | 70% | 1018.3 hPa | 0 mm | - | 597 W/m² | - |
| 1787840347 | 25° C | 70% | 1018.5 hPa | 0 mm | - | 238 W/m² | - |
| 1787840047 | 25.56° C | 69% | 1018.5 hPa | 0 mm | - | 271 W/m² | - |
| 1787839743 | 25° C | 70% | 1018.4 hPa | 0 mm | - | 293 W/m² | - |
| 1787839437 | 25° C | 71% | 1018.2 hPa | 0 mm | - | 301 W/m² | - |
| 1787839136 | 24.44° C | 71% | 1018.3 hPa | 0 mm | - | 299 W/m² | - |
| 1787838835 | 24.44° C | 72% | 1017.9 hPa | 0 mm | - | 239 W/m² | - |
| 1787838531 | 23.89° C | 73% | 1018 hPa | 0 mm | - | 290 W/m² | - |
| 1787838229 | 23.33° C | 74% | 1018.3 hPa | 0 mm | - | 147 W/m² | - |
| 1787837928 | 23.33° C | 75% | 1018.2 hPa | 0 mm | - | 131 W/m² | - |
| 1787837627 | 22.78° C | 75% | 1018.2 hPa | 0 mm | - | 134 W/m² | - |
| 1787837323 | 22.22° C | 76% | 1018.2 hPa | 0 mm | - | 241 W/m² | - |
| 1787837018 | 22.22° C | 77% | 1018.3 hPa | 0 mm | - | 129 W/m² | - |
| 1787836718 | 22.22° C | 77% | 1018.3 hPa | 0 mm | - | 109 W/m² | - |
| 1787836412 | 21.67° C | 77% | 1018.1 hPa | 0 mm | - | 94 W/m² | - |
| 1787836107 | 21.67° C | 77% | 1018.3 hPa | 0 mm | - | 83 W/m² | - |
| 1787835804 | 21.67° C | 77% | 1018.2 hPa | 0 mm | - | 76 W/m² | - |
| 1787835502 | 21.11° C | 77% | 1018.4 hPa | 0 mm | - | 69 W/m² | - |
| 1787835198 | 21.11° C | 77% | 1018.2 hPa | 0 mm | - | 95 W/m² | - |
| 1787834897 | 21.11° C | 78% | 1018.4 hPa | 0 mm | - | 167 W/m² | - |
| 1787834597 | 20.56° C | 79% | 1018.4 hPa | 0 mm | - | 127 W/m² | - |
* Rain latest hour (hover to see other rain measurements)
** Current wind speed in m/s (hover to see current wind gust speed)